AirNav   Everest Fuels
 
 965 users online  

03MO Dorton Airport
Richmond, Missouri, USA


FAA INFORMATION EFFECTIVE 05 DECEMBER 2019

Location

FAA Identifier: 03MO
Lat/Long: 39-17-19.7900N 093-59-32.7200W
39-17.329833N 093-59.545333W
39.2888306,-93.9924222
(estimated)
Elevation: 930 ft. / 283 m (estimated)
From city: 1 mile NW of RICHMOND, MO
Time zone: UTC -6 (UTC -5 during Daylight Saving Time)
Zip code: 64085

Airport Operations

Airport use: Private use. Permission required prior to landing
Activation date: 02/2018
Control tower: no
ARTCC: KANSAS CITY CENTER
FSS: COLUMBIA FLIGHT SERVICE STATION
Attendance: 
Segmented circle: no

Airport Communications

WX AWOS-3 at GPH (15 nm W): 120.275 (816-407-3399)

Nearby radio navigation aids

VOR radial/distance  VOR name  Freq  Var
ANXr022/13.2NAPOLEON VORTAC114.0007E
BQSr192/21.2BRAYMER VOR/DME111.2003E
MCIr085/34.6KANSAS CITY VORTAC113.2505E

Airport Services

Runway Information

Runway 9/27

Dimensions: 2100 x 100 ft. / 640 x 30 m
Surface: turf/gravel, in fair condition
RUNWAY 9  RUNWAY 27
Latitude: 39-17.326167N39-17.333333N
Longitude: 093-59.768167W093-59.322833W
Elevation: 930.0 ft.924.0 ft.
Traffic pattern: leftright
Runway heading: 089 true269 true

Airport Ownership and Management from official FAA records

Ownership: Privately-owned
Owner: JOHN DORTON
1011 WOODCLIFF DR
RICHMOND, MO 64085
Manager: JOHN DORTON
1011 WOODCLIFF DR
RICHMOND, MO 64085
Phone 806-616-4243

Additional Remarks

FOR CD CTC KANSAS CITY APCH AT 816-329-2710.

Instrument Procedures

There are no published instrument procedures at 03MO.

Some nearby airports with instrument procedures:

3EX - Excelsior Springs Memorial Airport (10 nm W)
KGPH - Midwest National Air Center Airport (15 nm W)
3GV - East Kansas City Airport (19 nm SW)
KHIG - Higginsville Industrial Municipal Airport (20 nm SE)
KLXT - Lee's Summit Municipal Airport (27 nm SW)
 
Loc | Ops | Rwys | IFR | FBO | Links
Com | Nav | Svcs | Stats | Notes
Aerial photo
No photo
 
Airport distance calculator
Flying to Dorton Airport? Find the distance to fly.

From to 03MO

Sunrise and sunset
Times for 05-Dec-2019
 Local
(UTC-6)
 Zulu
(UTC)
Morning civil twilight06:5212:52
Sunrise07:2113:21
Sunset16:5222:52
Evening civil twilight17:2223:22

Current date and time
Zulu (UTC)  06-Dec-2019 04:51:12
Local (UTC-6)  05-Dec-2019 22:51:12
 
METAR
KGPH 
15nm W 
060435Z AUTO 00000KT 10SM CLR 05/02 A3000 RMK AO2
KLXT 
26nm SW 
060353Z AUTO 07004KT 10SM CLR 09/03 A2997 RMK AO2 SLP152 T00940028
KEZZ 
29nm NW 
060435Z AUTO 34007KT 10SM CLR 06/02 A3001 RMK AO2 T00580019
TAF
KMKC 
30nm W 
051720Z 0518/0618 17006KT P6SM SCT200 FM060100 36004KT P6SM BKN120 FM061100 36015KT P6SM SCT025 BKN040
KMCI 
34nm W 
051720Z 0518/0618 18006KT P6SM SCT200 FM060000 36004KT P6SM BKN120 FM061000 36015KT P6SM SCT025 BKN040
NOTAMs
Click for the latest NOTAMs
NOTAMs are issued by the DoD/FAA and will open in a separate window not controlled by AirNav.

 

 
 

Would you like to see your business listed on this page?

 If your business provides an interesting product or service to pilots, flight crews, aircraft, or users of the Dorton Airport, you should consider listing it here.  To start the listing process, click on the button below
 
Add a business
 

Other Pages about Dorton Airport

Update a link
 
Copyright © AirNav, LLC. All rights reserved. Privacy Policy  Contact